Terminal Aerodrome Forecast
Issued by NWS Blacksburg, VA

Current Version | Previous Version | Graphics & Text | Print | Product List | Glossary On
Versions: 1 2 3 4 5 6 7 8 9 10 11 12 13 14 15 16 17 18 19 20 21 22 23 24
000
FTUS41 KRNK 291129
TAFBLF
TAF
KBLF 291129Z 2912/3012 24004KT P6SM -RA SCT045 OVC090
     FM291400 18003KT P6SM SCT040 OVC100
     FM291700 27003KT P6SM BKN030
     FM300200 00000KT P6SM SCT030
     FM300700 00000KT 1 1/2SM BR SCT003=

USA.gov is the U.S. government's official web portal to all federal, state and local government web resources and services.